createdAt,value
2019-04-03T00:00:56.739Z,20.40
2019-04-03T00:01:56.744Z,18.80
2019-04-03T00:02:56.708Z,22.10
2019-04-03T00:03:56.700Z,20.10
2019-04-03T00:04:56.746Z,22.00
2019-04-03T00:05:56.695Z,19.60
2019-04-03T00:06:56.742Z,20.80
2019-04-03T00:07:56.694Z,23.40
2019-04-03T00:08:56.646Z,21.70
2019-04-03T00:09:56.649Z,21.00
2019-04-03T00:10:56.625Z,21.80
2019-04-03T00:11:56.622Z,21.30
2019-04-03T00:12:56.605Z,23.00
2019-04-03T00:13:56.587Z,22.20
2019-04-03T00:14:56.589Z,18.70
2019-04-03T00:15:56.568Z,21.30
2019-04-03T00:16:56.558Z,20.30
2019-04-03T00:17:56.647Z,20.70
2019-04-03T00:18:56.534Z,20.70
2019-04-03T00:19:56.521Z,22.30
2019-04-03T00:20:56.506Z,23.10
2019-04-03T00:21:56.496Z,21.60
2019-04-03T00:22:56.502Z,23.40
2019-04-03T00:23:56.484Z,25.60
2019-04-03T00:24:56.474Z,22.50
2019-04-03T00:25:56.453Z,23.30
2019-04-03T00:26:56.441Z,21.40
2019-04-03T00:27:56.498Z,24.60
2019-04-03T00:28:56.453Z,19.90
2019-04-03T00:29:56.410Z,21.60
2019-04-03T00:30:56.477Z,21.90
2019-04-03T00:31:56.383Z,21.60
2019-04-03T00:32:56.391Z,20.20
2019-04-03T00:33:56.365Z,20.40
2019-04-03T00:34:56.357Z,20.40
2019-04-03T00:35:56.346Z,20.40
2019-04-03T00:36:56.430Z,22.60
2019-04-03T00:37:56.334Z,19.40
2019-04-03T00:38:56.308Z,22.70
2019-04-03T00:39:56.351Z,22.80
2019-04-03T00:40:56.292Z,22.20
2019-04-03T00:41:56.276Z,19.30
2019-04-03T00:42:56.332Z,23.40
2019-04-03T00:43:56.250Z,24.90
2019-04-03T00:44:56.235Z,23.00
2019-04-03T00:45:56.231Z,21.70
2019-04-03T00:46:56.234Z,19.90
2019-04-03T00:47:56.226Z,21.30
2019-04-03T00:48:56.312Z,21.30
2019-04-03T00:49:57.061Z,21.50
2019-04-03T00:50:57.316Z,23.50
2019-04-03T00:51:57.613Z,20.50
2019-04-03T00:52:57.437Z,23.70
2019-04-03T00:53:57.969Z,19.30
2019-04-03T00:54:56.625Z,23.50
2019-04-03T00:55:56.493Z,21.30
2019-04-03T00:56:56.489Z,22.20
2019-04-03T00:57:56.846Z,24.40
2019-04-03T00:58:56.080Z,21.70
2019-04-03T00:59:56.423Z,20.80
2019-04-03T01:00:56.334Z,21.30
2019-04-03T01:01:56.506Z,23.00
2019-04-03T01:02:58.157Z,20.60
2019-04-03T01:03:58.115Z,21.80
2019-04-03T01:04:57.997Z,21.30
2019-04-03T01:05:56.698Z,19.40
2019-04-03T01:06:56.800Z,23.00
2019-04-03T01:07:55.987Z,21.40
2019-04-03T01:08:55.985Z,21.80
2019-04-03T01:09:55.965Z,19.70
2019-04-03T01:10:55.957Z,20.50
2019-04-03T01:11:55.930Z,19.00
2019-04-03T01:12:55.962Z,21.30
2019-04-03T01:13:55.943Z,18.80
2019-04-03T01:14:56.039Z,21.50
2019-04-03T01:15:55.937Z,22.60
2019-04-03T01:16:55.879Z,23.00
2019-04-03T01:17:55.865Z,23.20
2019-04-03T01:18:55.869Z,21.80
2019-04-03T01:19:55.845Z,21.50
2019-04-03T01:20:55.828Z,22.00
2019-04-03T01:21:55.822Z,21.60
2019-04-03T01:22:55.807Z,21.10
2019-04-03T01:23:55.854Z,21.40
2019-04-03T01:24:55.788Z,21.00
2019-04-03T01:25:56.100Z,21.20
2019-04-03T01:26:55.769Z,20.40
2019-04-03T01:27:55.760Z,19.40
2019-04-03T01:28:56.049Z,25.60
2019-04-03T01:29:55.727Z,23.60
2019-04-03T01:30:55.716Z,19.90
2019-04-03T01:31:55.788Z,25.80
2019-04-03T01:32:55.707Z,21.00
2019-04-03T01:33:55.710Z,22.70
2019-04-03T01:34:55.758Z,24.90
2019-04-03T01:35:55.660Z,25.60
2019-04-03T01:36:55.669Z,23.40
2019-04-03T01:37:55.642Z,23.30
2019-04-03T01:38:55.771Z,20.70
2019-04-03T01:39:55.618Z,21.90
2019-04-03T01:40:55.609Z,19.00
2019-04-03T01:41:55.623Z,19.90
2019-04-03T01:42:55.586Z,23.40
2019-04-03T01:43:55.673Z,21.30
2019-04-03T01:44:56.084Z,23.70
2019-04-03T01:45:56.945Z,20.40
2019-04-03T01:46:57.311Z,21.70
2019-04-03T01:47:57.354Z,22.30
2019-04-03T01:48:58.026Z,25.80
2019-04-03T01:49:56.806Z,20.90
2019-04-03T01:50:55.505Z,20.90
2019-04-03T01:51:55.488Z,22.30
2019-04-03T01:52:55.481Z,22.40
2019-04-03T01:53:55.470Z,23.60
2019-04-03T01:54:55.511Z,21.90
2019-04-03T01:55:55.450Z,20.50
2019-04-03T01:56:55.426Z,20.50
2019-04-03T01:57:55.413Z,25.50
2019-04-03T01:58:55.401Z,22.60
2019-04-03T01:59:55.409Z,24.30
2019-04-03T02:00:55.378Z,21.70
2019-04-03T02:01:55.372Z,20.40
2019-04-03T02:02:55.360Z,24.50
2019-04-03T02:03:55.352Z,24.60
2019-04-03T02:04:55.495Z,21.20
2019-04-03T02:05:55.327Z,22.50
2019-04-03T02:06:55.406Z,22.00
2019-04-03T02:07:55.307Z,23.00
2019-04-03T02:08:55.286Z,24.00
2019-04-03T02:09:55.495Z,26.20
2019-04-03T02:10:55.264Z,26.20
2019-04-03T02:11:55.252Z,25.80
2019-04-03T02:12:55.259Z,24.70
2019-04-03T02:13:55.231Z,21.80
2019-04-03T02:14:55.235Z,23.50
2019-04-03T02:15:55.217Z,23.20
2019-04-03T02:16:55.197Z,23.40
2019-04-03T02:17:55.320Z,21.30
2019-04-03T02:18:55.723Z,21.30
2019-04-03T02:19:56.379Z,21.20
2019-04-03T02:20:57.244Z,25.30
2019-04-03T02:21:55.144Z,22.40
2019-04-03T02:22:55.145Z,21.70
2019-04-03T02:23:55.119Z,23.50
2019-04-03T02:24:55.128Z,22.00
2019-04-03T02:25:55.093Z,22.70
2019-04-03T02:26:55.085Z,22.00
2019-04-03T02:27:55.072Z,22.30
2019-04-03T02:28:55.224Z,23.80
2019-04-03T02:29:55.070Z,23.20
2019-04-03T02:30:55.075Z,25.90
2019-04-03T02:31:55.027Z,24.10
2019-04-03T02:32:56.664Z,24.00
2019-04-03T02:33:55.010Z,26.50
2019-04-03T02:34:55.011Z,25.20
2019-04-03T02:35:55.467Z,26.00
2019-04-03T02:36:54.974Z,25.80
2019-04-03T02:37:54.964Z,24.90
2019-04-03T02:38:54.949Z,24.70
2019-04-03T02:39:59.115Z,23.70
2019-04-03T02:40:56.048Z,22.80
2019-04-03T02:41:55.042Z,23.70
2019-04-03T02:42:54.925Z,22.80
2019-04-03T02:43:55.152Z,25.90
2019-04-03T02:44:55.105Z,21.10
2019-04-03T02:45:56.408Z,24.30
2019-04-03T02:46:54.864Z,22.30
2019-04-03T02:47:54.861Z,24.00
2019-04-03T02:48:54.898Z,27.50
2019-04-03T02:49:54.836Z,23.50
2019-04-03T02:50:54.842Z,23.70
2019-04-03T02:51:54.806Z,22.10
2019-04-03T02:52:58.012Z,21.30
2019-04-03T02:53:54.792Z,23.50
2019-04-03T02:54:54.771Z,22.50
2019-04-03T02:55:54.778Z,22.40
2019-04-03T02:56:54.751Z,22.60
2019-04-03T02:57:54.736Z,24.50
2019-04-03T02:58:55.177Z,22.40
2019-04-03T02:59:58.267Z,22.60
2019-04-03T03:00:54.740Z,22.70
2019-04-03T03:01:54.912Z,26.20
2019-04-03T03:02:54.968Z,23.40
2019-04-03T03:03:54.668Z,26.60
2019-04-03T03:04:55.627Z,24.00
2019-04-03T03:05:54.680Z,23.30
2019-04-03T03:06:54.909Z,25.90
2019-04-03T03:07:54.620Z,23.10
2019-04-03T03:08:54.608Z,27.80
2019-04-03T03:09:54.846Z,22.50
2019-04-03T03:10:54.612Z,20.90
2019-04-03T03:11:56.108Z,24.00
2019-04-03T03:12:54.566Z,26.90
2019-04-03T03:13:54.565Z,25.90
2019-04-03T03:14:54.555Z,22.00
2019-04-03T03:15:54.583Z,27.70
2019-04-03T03:16:54.518Z,28.40
2019-04-03T03:17:55.892Z,26.10
2019-04-03T03:18:54.496Z,24.60
2019-04-03T03:19:54.774Z,24.10
2019-04-03T03:20:54.497Z,23.80
2019-04-03T03:21:54.473Z,30.30
2019-04-03T03:22:54.517Z,26.00
2019-04-03T03:23:56.204Z,25.40
2019-04-03T03:24:54.428Z,25.20
2019-04-03T03:25:54.594Z,26.90
2019-04-03T03:26:54.410Z,26.20
2019-04-03T03:27:54.405Z,23.00
2019-04-03T03:28:54.381Z,27.40
2019-04-03T03:29:54.478Z,27.00
2019-04-03T03:30:59.844Z,26.90
2019-04-03T03:32:07.913Z,25.80
2019-04-03T03:33:22.291Z,25.70
2019-04-03T03:34:00.518Z,28.80
2019-04-03T03:35:07.624Z,28.30
2019-04-03T03:35:55.952Z,24.70
2019-04-03T03:36:58.697Z,22.90
2019-04-03T03:37:55.378Z,27.10
2019-04-03T03:38:54.278Z,23.80
2019-04-03T03:39:54.426Z,27.10
2019-04-03T03:40:54.417Z,25.20
2019-04-03T03:41:57.509Z,25.70
2019-04-03T03:42:54.232Z,25.40
2019-04-03T03:43:54.359Z,26.20
2019-04-03T03:44:54.306Z,24.90
2019-04-03T03:45:54.202Z,24.30
2019-04-03T03:46:54.203Z,24.20
2019-04-03T03:47:54.605Z,27.00
2019-04-03T03:48:54.159Z,28.00
2019-04-03T03:49:54.266Z,24.20
2019-04-03T03:50:57.275Z,27.80
2019-04-03T03:51:54.146Z,27.60
2019-04-03T03:52:54.115Z,31.30
2019-04-03T03:53:54.130Z,27.40
2019-04-03T03:54:54.087Z,25.10
2019-04-03T03:55:57.506Z,24.70
2019-04-03T03:56:54.090Z,23.60
2019-04-03T03:57:54.060Z,27.70
2019-04-03T03:58:54.092Z,28.40
2019-04-03T03:59:54.053Z,29.30
2019-04-03T04:00:57.898Z,25.60
2019-04-03T04:01:55.132Z,28.10
2019-04-03T04:02:54.117Z,27.30
2019-04-03T04:03:53.982Z,31.00
2019-04-03T04:04:53.973Z,25.70
2019-04-03T04:05:56.023Z,25.50
2019-04-03T04:06:54.039Z,25.30
2019-04-03T04:07:53.944Z,24.80
2019-04-03T04:08:53.946Z,26.40
2019-04-03T04:09:54.135Z,25.50
2019-04-03T04:10:58.097Z,26.90
2019-04-03T04:11:54.921Z,28.70
2019-04-03T04:12:53.897Z,26.70
2019-04-03T04:13:53.891Z,26.80
2019-04-03T04:14:56.434Z,28.30
2019-04-03T04:15:54.151Z,26.80
2019-04-03T04:16:53.860Z,28.30
2019-04-03T04:17:53.850Z,29.40
2019-04-03T04:18:57.269Z,27.20
2019-04-03T04:19:54.177Z,28.80
2019-04-03T04:20:53.843Z,25.50
2019-04-03T04:21:54.023Z,26.90
2019-04-03T04:22:54.079Z,27.70
2019-04-03T04:23:55.958Z,30.60
2019-04-03T04:24:53.749Z,29.70
2019-04-03T04:25:53.739Z,28.30
2019-04-03T04:26:53.747Z,27.70
2019-04-03T04:27:53.719Z,29.80
2019-04-03T04:28:53.704Z,24.90
2019-04-03T04:29:53.693Z,29.30
2019-04-03T04:30:53.679Z,31.30
2019-04-03T04:31:53.690Z,30.90
2019-04-03T04:32:53.658Z,30.30
2019-04-03T04:33:53.655Z,30.00
2019-04-03T04:34:53.640Z,30.40
2019-04-03T04:35:53.629Z,28.90
2019-04-03T04:36:55.334Z,27.60
2019-04-03T04:37:55.298Z,29.00
2019-04-03T04:38:53.615Z,27.60
2019-04-03T04:39:53.582Z,25.50
2019-04-03T04:40:53.784Z,27.50
2019-04-03T04:41:53.658Z,28.50
2019-04-03T04:42:53.579Z,28.00
2019-04-03T04:43:53.533Z,28.80
2019-04-03T04:44:53.566Z,29.80
2019-04-03T04:45:53.514Z,27.00
2019-04-03T04:46:53.510Z,31.50
2019-04-03T04:47:53.515Z,27.10
2019-04-03T04:48:53.528Z,28.10
2019-04-03T04:49:54.210Z,24.00
2019-04-03T04:50:55.161Z,28.90
2019-04-03T04:51:56.531Z,31.00
2019-04-03T04:52:53.520Z,28.30
2019-04-03T04:53:53.444Z,28.50
2019-04-03T04:54:53.409Z,26.40
2019-04-03T04:55:53.403Z,29.10
2019-04-03T04:56:53.386Z,27.20
2019-04-03T04:57:53.394Z,28.30
2019-04-03T04:58:53.575Z,29.60
2019-04-03T04:59:53.353Z,29.40
2019-04-03T05:00:53.873Z,28.70
2019-04-03T05:01:53.335Z,27.20
2019-04-03T05:02:53.376Z,29.40
2019-04-03T05:03:53.932Z,35.70
2019-04-03T05:04:55.296Z,26.30
2019-04-03T05:05:53.526Z,28.30
2019-04-03T05:06:53.279Z,29.40
2019-04-03T05:07:53.760Z,27.20
2019-04-03T05:08:53.254Z,28.50
2019-04-03T05:09:53.242Z,28.50
2019-04-03T05:10:53.224Z,32.10
2019-04-03T05:11:53.219Z,29.80
2019-04-03T05:12:53.238Z,28.80
2019-04-03T05:13:53.416Z,28.80
2019-04-03T05:14:53.306Z,29.40
2019-04-03T05:15:54.097Z,30.40
2019-04-03T05:16:54.115Z,33.00
2019-04-03T05:17:53.171Z,31.10
2019-04-03T05:18:53.142Z,29.90
2019-04-03T05:19:53.128Z,32.00
2019-04-03T05:20:53.118Z,29.60
2019-04-03T05:21:53.502Z,30.20
2019-04-03T05:22:55.415Z,26.20
2019-04-03T05:23:55.748Z,28.10
2019-04-03T05:24:53.074Z,29.50
2019-04-03T05:25:53.236Z,29.30
2019-04-03T05:26:53.067Z,29.90
2019-04-03T05:27:53.040Z,30.70
2019-04-03T05:28:57.088Z,27.10
2019-04-03T05:29:53.026Z,33.80
2019-04-03T05:30:53.006Z,29.50
2019-04-03T05:31:52.994Z,28.40
2019-04-03T05:32:52.983Z,26.90
2019-04-03T05:33:53.182Z,28.40
2019-04-03T05:34:52.961Z,29.50
2019-04-03T05:35:52.959Z,25.70
2019-04-03T05:36:52.930Z,29.40
2019-04-03T05:37:52.925Z,29.80
2019-04-03T05:38:53.913Z,32.00
2019-04-03T05:39:54.670Z,31.80
2019-04-03T05:40:52.899Z,33.30
2019-04-03T05:41:52.883Z,30.50
2019-04-03T05:42:52.874Z,32.50
2019-04-03T05:43:52.874Z,28.20
2019-04-03T05:44:52.866Z,30.80
2019-04-03T05:45:52.832Z,29.50
2019-04-03T05:46:52.822Z,32.20
2019-04-03T05:47:52.816Z,29.10
2019-04-03T05:48:52.828Z,30.90
2019-04-03T05:49:55.588Z,28.90
2019-04-03T05:50:52.781Z,25.50
2019-04-03T05:51:52.766Z,34.00
2019-04-03T05:52:52.754Z,30.70
2019-04-03T05:53:54.167Z,30.80
2019-04-03T05:54:52.960Z,27.50
2019-04-03T05:55:52.942Z,33.40
2019-04-03T05:56:52.705Z,29.40
2019-04-03T05:57:52.902Z,30.30
2019-04-03T05:58:56.694Z,28.10
2019-04-03T05:59:59.936Z,33.40
2019-04-03T06:01:04.405Z,28.50
2019-04-03T06:01:53.662Z,30.20
2019-04-03T06:02:53.661Z,28.20
2019-04-03T06:03:52.681Z,28.70
2019-04-03T06:04:52.945Z,31.50
2019-04-03T06:05:52.613Z,31.50
2019-04-03T06:06:52.601Z,31.10
2019-04-03T06:07:52.704Z,27.70
2019-04-03T06:08:52.991Z,30.40
2019-04-03T06:09:53.862Z,30.60
2019-04-03T06:10:52.556Z,30.70
2019-04-03T06:11:52.866Z,28.70
2019-04-03T06:12:52.657Z,28.00
2019-04-03T06:13:52.798Z,29.30
2019-04-03T06:14:52.507Z,30.90
2019-04-03T06:15:52.986Z,31.10
2019-04-03T06:16:55.513Z,29.00
2019-04-03T06:17:55.105Z,30.70
2019-04-03T06:18:52.500Z,31.10
2019-04-03T06:19:52.456Z,32.30
2019-04-03T06:20:52.439Z,29.70
2019-04-03T06:21:52.426Z,29.90
2019-04-03T06:22:52.445Z,28.90
2019-04-03T06:23:53.018Z,32.60
2019-04-03T06:24:52.407Z,32.20
2019-04-03T06:25:52.382Z,29.70
2019-04-03T06:26:52.379Z,29.50
2019-04-03T06:27:52.623Z,27.70
2019-04-03T06:28:52.370Z,34.90
2019-04-03T06:29:55.085Z,29.00
2019-04-03T06:30:52.326Z,31.90
2019-04-03T06:31:52.320Z,31.70
2019-04-03T06:32:54.743Z,29.80
2019-04-03T06:33:52.311Z,32.00
2019-04-03T06:34:52.280Z,30.00
2019-04-03T06:35:52.275Z,29.30
2019-04-03T06:36:52.480Z,32.90
2019-04-03T06:37:53.145Z,29.50
2019-04-03T06:38:52.253Z,28.70
2019-04-03T06:39:52.236Z,32.60
2019-04-03T06:40:52.220Z,30.10
2019-04-03T06:41:52.351Z,32.80
2019-04-03T06:42:52.204Z,31.40
2019-04-03T06:43:54.045Z,32.40
2019-04-03T06:44:53.612Z,30.60
2019-04-03T06:45:52.173Z,32.00
2019-04-03T06:46:54.062Z,30.00
2019-04-03T06:47:52.301Z,31.90
2019-04-03T06:48:55.061Z,29.70
2019-04-03T06:49:52.112Z,35.30
2019-04-03T06:50:52.106Z,31.10
2019-04-03T06:51:52.093Z,33.10
2019-04-03T06:52:53.049Z,30.30
2019-04-03T06:53:52.102Z,30.00
2019-04-03T06:54:52.062Z,27.60
2019-04-03T06:55:52.217Z,29.90
2019-04-03T06:56:53.003Z,29.40
2019-04-03T06:57:52.026Z,32.30
2019-04-03T06:58:52.024Z,30.30
2019-04-03T06:59:52.187Z,35.50
2019-04-03T07:00:54.373Z,30.50
2019-04-03T07:01:52.837Z,33.00
2019-04-03T07:02:52.042Z,30.60
2019-04-03T07:03:51.959Z,30.50
2019-04-03T07:04:51.979Z,31.50
2019-04-03T07:05:52.134Z,29.80
2019-04-03T07:06:52.353Z,37.30
2019-04-03T07:07:51.927Z,30.80
2019-04-03T07:08:51.895Z,35.60
2019-04-03T07:09:51.910Z,32.70
2019-04-03T07:10:55.366Z,31.60
2019-04-03T07:11:51.863Z,28.80
2019-04-03T07:12:51.850Z,31.30
2019-04-03T07:13:53.853Z,30.50
2019-04-03T07:14:51.935Z,33.00
2019-04-03T07:15:51.824Z,35.10
2019-04-03T07:16:51.812Z,30.80
2019-04-03T07:17:51.805Z,33.00
2019-04-03T07:18:51.790Z,34.10
2019-04-03T07:19:51.794Z,35.10
2019-04-03T07:20:52.566Z,32.30
2019-04-03T07:21:53.020Z,30.70
2019-04-03T07:22:51.955Z,32.00
2019-04-03T07:23:51.726Z,30.50
2019-04-03T07:24:51.740Z,33.90
2019-04-03T07:25:51.708Z,33.20
2019-04-03T07:26:51.695Z,34.50
2019-04-03T07:27:51.797Z,30.50
2019-04-03T07:28:51.684Z,33.80
2019-04-03T07:29:51.789Z,32.50
2019-04-03T07:30:53.569Z,31.20
2019-04-03T07:31:52.784Z,31.80
2019-04-03T07:32:51.634Z,32.50
2019-04-03T07:33:51.812Z,31.60
2019-04-03T07:34:51.625Z,31.60
2019-04-03T07:35:51.596Z,29.40
2019-04-03T07:36:51.820Z,47.40
2019-04-03T07:37:52.072Z,36.10
2019-04-03T07:38:51.568Z,31.70
2019-04-03T07:39:51.574Z,31.70
2019-04-03T07:40:52.428Z,32.40
2019-04-03T07:41:53.318Z,29.10
2019-04-03T07:42:51.536Z,28.90
2019-04-03T07:43:51.512Z,29.30
2019-04-03T07:44:51.522Z,35.00
2019-04-03T07:45:51.477Z,35.50
2019-04-03T07:46:51.514Z,30.50
2019-04-03T07:47:51.463Z,31.30
2019-04-03T07:48:51.463Z,33.50
2019-04-03T07:49:51.472Z,33.00
2019-04-03T07:50:51.443Z,30.40
2019-04-03T07:51:51.406Z,30.40
2019-04-03T07:52:51.398Z,33.20
2019-04-03T07:53:51.680Z,33.20
2019-04-03T07:54:52.898Z,27.30
2019-04-03T07:55:51.615Z,30.40
2019-04-03T07:56:51.350Z,30.30
2019-04-03T07:57:51.745Z,35.90
2019-04-03T07:58:51.330Z,31.50
2019-04-03T07:59:51.321Z,27.90
2019-04-03T08:00:51.330Z,30.90
2019-04-03T08:01:51.332Z,27.50
2019-04-03T08:02:51.290Z,30.80
2019-04-03T08:03:52.088Z,31.10
2019-04-03T08:04:51.559Z,29.60
2019-04-03T08:05:51.276Z,29.70
2019-04-03T08:06:51.240Z,28.00
2019-04-03T08:07:51.245Z,29.30
2019-04-03T08:09:05.848Z,29.30
2019-04-03T08:09:52.222Z,27.60
2019-04-03T08:10:51.541Z,30.20
2019-04-03T08:11:51.303Z,30.80
2019-04-03T08:12:51.181Z,30.80
2019-04-03T08:13:51.250Z,28.10
2019-04-03T08:14:51.157Z,30.50
2019-04-03T08:15:51.172Z,25.50
2019-04-03T08:16:51.128Z,28.30
2019-04-03T08:17:51.516Z,29.30
2019-04-03T08:18:51.794Z,27.40
2019-04-03T08:19:53.730Z,28.70
2019-04-03T08:20:51.115Z,30.70
2019-04-03T08:21:51.379Z,27.80
2019-04-03T08:22:51.060Z,27.70
2019-04-03T08:23:51.060Z,32.10
2019-04-03T08:24:53.071Z,28.40
2019-04-03T08:25:54.055Z,27.20
2019-04-03T08:26:52.138Z,28.50
2019-04-03T08:27:51.014Z,30.70
2019-04-03T08:28:50.992Z,26.60
2019-04-03T08:29:51.003Z,25.60
2019-04-03T08:30:51.200Z,31.30
2019-04-03T08:31:50.980Z,28.70
2019-04-03T08:32:50.950Z,27.40
2019-04-03T08:33:50.952Z,34.90
2019-04-03T08:34:51.050Z,28.50
2019-04-03T08:35:50.936Z,28.40
2019-04-03T08:36:50.932Z,26.50
2019-04-03T08:37:51.006Z,30.60
2019-04-03T08:38:50.937Z,33.10
2019-04-03T08:39:51.062Z,29.60
2019-04-03T08:40:52.399Z,26.60
2019-04-03T08:41:51.140Z,31.50
2019-04-03T08:42:50.830Z,25.00
2019-04-03T08:43:50.829Z,26.50
2019-04-03T08:44:50.818Z,29.10
2019-04-03T08:45:50.819Z,25.90
2019-04-03T08:46:50.965Z,25.00
2019-04-03T08:47:50.779Z,27.30
2019-04-03T08:48:50.773Z,30.90
2019-04-03T08:49:50.748Z,25.10
2019-04-03T08:50:50.786Z,25.50
2019-04-03T08:51:50.761Z,26.70
2019-04-03T08:52:50.738Z,24.70
2019-04-03T08:53:53.719Z,25.40
2019-04-03T08:54:50.714Z,27.60
2019-04-03T08:55:50.720Z,24.80
2019-04-03T08:56:50.824Z,24.40
2019-04-03T08:57:52.526Z,29.40
2019-04-03T08:58:50.674Z,29.30
2019-04-03T08:59:50.650Z,28.40
2019-04-03T09:00:50.799Z,25.90
2019-04-03T09:01:50.745Z,30.40
2019-04-03T09:02:50.608Z,29.60
2019-04-03T09:03:50.885Z,26.50
2019-04-03T09:04:50.755Z,25.80
2019-04-03T09:05:51.573Z,29.90
2019-04-03T09:06:51.734Z,32.40
2019-04-03T09:07:50.795Z,26.90
2019-04-03T09:08:50.546Z,26.20
2019-04-03T09:09:50.944Z,27.90
2019-04-03T09:10:50.513Z,25.50
2019-04-03T09:11:50.522Z,31.00
2019-04-03T09:12:50.497Z,26.00
2019-04-03T09:13:50.525Z,23.50
2019-04-03T09:14:50.479Z,25.70
2019-04-03T09:15:50.458Z,25.90
2019-04-03T09:16:50.463Z,28.70
2019-04-03T09:17:50.435Z,25.90
2019-04-03T09:18:50.425Z,26.90
2019-04-03T09:19:50.416Z,27.00
2019-04-03T09:20:50.411Z,24.20
2019-04-03T09:21:51.280Z,24.90
2019-04-03T09:22:53.049Z,23.10
2019-04-03T09:23:50.364Z,24.00
2019-04-03T09:24:50.368Z,24.20
2019-04-03T09:25:50.500Z,24.10
2019-04-03T09:26:50.356Z,24.10
2019-04-03T09:27:50.324Z,24.10
2019-04-03T09:28:50.340Z,25.20
2019-04-03T09:29:50.706Z,21.70
2019-04-03T09:30:50.290Z,26.10
2019-04-03T09:31:51.422Z,23.50
2019-04-03T09:32:53.383Z,26.20
2019-04-03T09:33:50.252Z,24.00
2019-04-03T09:34:50.393Z,26.70
2019-04-03T09:35:50.238Z,26.80
2019-04-03T09:36:50.251Z,24.20
2019-04-03T09:37:50.222Z,25.00
2019-04-03T09:38:50.499Z,23.40
2019-04-03T09:39:50.182Z,26.90
2019-04-03T09:40:50.481Z,24.10
2019-04-03T09:41:50.983Z,25.00
2019-04-03T09:42:51.582Z,26.40
2019-04-03T09:43:50.149Z,27.00
2019-04-03T09:44:50.137Z,27.20
2019-04-03T09:45:50.192Z,26.10
2019-04-03T09:46:50.140Z,25.00
2019-04-03T09:47:50.103Z,25.80
2019-04-03T09:48:50.098Z,28.60
2019-04-03T09:49:50.092Z,32.00
2019-04-03T09:50:50.063Z,24.60
2019-04-03T09:51:52.548Z,22.90
2019-04-03T09:52:50.757Z,24.70
2019-04-03T09:53:50.370Z,24.30
2019-04-03T09:54:50.024Z,20.60
2019-04-03T09:55:50.002Z,26.50
2019-04-03T09:56:59.338Z,21.90
2019-04-03T09:57:52.814Z,23.80
2019-04-03T09:58:49.971Z,24.60
2019-04-03T09:59:49.967Z,24.30
2019-04-03T10:00:49.959Z,26.70
2019-04-03T10:01:50.226Z,26.60
2019-04-03T10:02:51.511Z,26.80
2019-04-03T10:03:49.920Z,30.30
2019-04-03T10:04:49.976Z,23.30
2019-04-03T10:05:49.897Z,23.90
2019-04-03T10:06:49.907Z,27.80
2019-04-03T10:07:49.867Z,24.90
2019-04-03T10:08:49.858Z,24.60
2019-04-03T10:09:49.854Z,19.80
2019-04-03T10:10:50.067Z,23.90
2019-04-03T10:11:51.058Z,24.80
2019-04-03T10:12:49.822Z,22.40
2019-04-03T10:13:49.877Z,21.60
2019-04-03T10:14:49.790Z,21.30
2019-04-03T10:15:49.878Z,20.20
2019-04-03T10:16:49.819Z,19.80
2019-04-03T10:17:49.789Z,19.70
2019-04-03T10:18:49.752Z,23.40
2019-04-03T10:19:49.838Z,18.80
2019-04-03T10:20:49.799Z,22.10
2019-04-03T10:21:51.843Z,23.00
2019-04-03T10:22:49.706Z,24.20
2019-04-03T10:23:49.874Z,21.60
2019-04-03T10:24:49.830Z,20.60
2019-04-03T10:25:52.521Z,23.60
2019-04-03T10:26:49.678Z,17.50
2019-04-03T10:27:49.889Z,20.90
2019-04-03T10:28:49.641Z,21.00
2019-04-03T10:29:50.657Z,21.50
2019-04-03T10:30:51.970Z,18.70
2019-04-03T10:31:49.628Z,20.30
2019-04-03T10:32:49.600Z,23.30
2019-04-03T10:33:49.713Z,19.60
2019-04-03T10:34:49.568Z,16.70
2019-04-03T10:35:49.564Z,19.30
2019-04-03T10:36:49.565Z,20.10
2019-04-03T10:37:49.782Z,22.60
2019-04-03T10:38:49.600Z,18.30
2019-04-03T10:39:51.765Z,22.90
2019-04-03T10:40:49.747Z,19.70
2019-04-03T10:41:49.505Z,18.80
2019-04-03T10:42:49.476Z,19.00
2019-04-03T10:43:49.465Z,21.70
2019-04-03T10:44:49.462Z,19.60
2019-04-03T10:45:49.465Z,19.20
2019-04-03T10:46:49.923Z,22.80
2019-04-03T10:47:49.425Z,21.80
2019-04-03T10:48:49.503Z,21.90
2019-04-03T10:49:49.411Z,19.90
2019-04-03T10:50:49.398Z,22.80
2019-04-03T10:51:49.654Z,22.50
2019-04-03T10:52:49.430Z,19.00
2019-04-03T10:53:51.641Z,22.50
2019-04-03T10:54:49.354Z,22.00
2019-04-03T10:55:49.341Z,16.70
2019-04-03T10:56:49.356Z,19.90
2019-04-03T10:57:49.419Z,16.50
2019-04-03T10:58:50.405Z,17.40
2019-04-03T10:59:53.194Z,19.10
2019-04-03T11:00:50.300Z,17.70
2019-04-03T11:01:49.302Z,18.20
2019-04-03T11:02:49.272Z,17.20
2019-04-03T11:03:49.273Z,19.60
2019-04-03T11:04:49.249Z,18.30
2019-04-03T11:05:49.645Z,17.20
2019-04-03T11:06:49.303Z,19.10
2019-04-03T11:07:49.219Z,19.10
2019-04-03T11:08:49.216Z,24.40
2019-04-03T11:09:49.192Z,18.50
2019-04-03T11:10:49.187Z,20.20
2019-04-03T11:11:49.189Z,17.40
2019-04-03T11:12:49.167Z,20.30
2019-04-03T11:13:49.152Z,18.00
2019-04-03T11:14:49.437Z,18.80
2019-04-03T11:15:49.130Z,16.40
2019-04-03T11:16:49.139Z,19.90
2019-04-03T11:17:49.988Z,23.80
2019-04-03T11:18:58.562Z,20.20
2019-04-03T11:19:50.100Z,19.70
2019-04-03T11:20:49.091Z,17.00
2019-04-03T11:21:49.104Z,18.70
2019-04-03T11:22:49.200Z,18.10
2019-04-03T11:23:49.227Z,19.00
2019-04-03T11:24:49.069Z,18.50
2019-04-03T11:25:49.151Z,15.10
2019-04-03T11:26:50.829Z,17.90
2019-04-03T11:27:49.062Z,15.10
2019-04-03T11:28:49.198Z,20.70
2019-04-03T11:29:49.024Z,19.00
2019-04-03T11:30:49.618Z,17.60
2019-04-03T11:31:49.027Z,18.20
2019-04-03T11:32:48.975Z,17.10
2019-04-03T11:33:51.293Z,19.80
2019-04-03T11:34:49.963Z,18.20
2019-04-03T11:35:48.980Z,17.30
2019-04-03T11:36:48.914Z,16.80
2019-04-03T11:37:48.928Z,19.00
2019-04-03T11:38:48.904Z,18.00
2019-04-03T11:40:01.039Z,21.00
2019-04-03T11:40:50.796Z,19.50
2019-04-03T11:41:48.886Z,18.50
2019-04-03T11:42:48.874Z,16.30
2019-04-03T11:43:48.855Z,17.70
2019-04-03T11:44:49.199Z,18.30
2019-04-03T11:45:48.840Z,18.10
2019-04-03T11:46:48.981Z,17.60
2019-04-03T11:47:48.836Z,17.20
2019-04-03T11:48:49.265Z,17.60
2019-04-03T11:49:51.421Z,21.10
2019-04-03T11:50:48.940Z,15.70
2019-04-03T11:51:48.775Z,19.60
2019-04-03T11:52:51.252Z,17.50
2019-04-03T11:53:49.049Z,17.00
2019-04-03T11:54:48.747Z,16.00
2019-04-03T11:55:48.862Z,17.10
2019-04-03T11:56:49.042Z,17.60
2019-04-03T11:57:49.591Z,16.90
2019-04-03T11:58:49.950Z,15.00
2019-04-03T11:59:49.051Z,17.90
2019-04-03T12:00:48.679Z,18.00
2019-04-03T12:01:48.680Z,16.50
2019-04-03T12:02:48.659Z,15.90
2019-04-03T12:03:50.725Z,16.50
2019-04-03T12:04:48.701Z,15.70
2019-04-03T12:05:48.640Z,14.60
2019-04-03T12:06:49.795Z,15.20
2019-04-03T12:07:48.620Z,18.60
2019-04-03T12:08:48.627Z,16.70
2019-04-03T12:09:48.604Z,15.90
2019-04-03T12:10:48.582Z,17.60
2019-04-03T12:11:48.583Z,14.20
2019-04-03T12:12:48.571Z,15.30
2019-04-03T12:13:48.592Z,17.00
2019-04-03T12:14:49.623Z,17.40
2019-04-03T12:15:52.490Z,17.30
2019-04-03T12:16:48.536Z,15.90
2019-04-03T12:17:48.773Z,18.50
2019-04-03T12:18:48.516Z,13.50
2019-04-03T12:19:48.797Z,17.70
2019-04-03T12:20:49.862Z,16.20
2019-04-03T12:21:50.389Z,15.70
2019-04-03T12:22:48.699Z,17.90
2019-04-03T12:23:48.588Z,16.90
2019-04-03T12:24:48.581Z,15.30
2019-04-03T12:25:48.458Z,14.30
2019-04-03T12:26:50.473Z,19.30
2019-04-03T12:27:49.314Z,14.00
2019-04-03T12:28:50.021Z,16.60
2019-04-03T12:29:48.875Z,15.70
2019-04-03T12:30:48.416Z,15.20
2019-04-03T12:31:48.393Z,16.70
2019-04-03T12:32:50.172Z,15.60
2019-04-03T12:33:54.927Z,15.30
2019-04-03T12:34:49.680Z,17.50
2019-04-03T12:35:48.418Z,16.70
2019-04-03T12:36:48.335Z,18.20
2019-04-03T12:37:50.143Z,15.60
2019-04-03T12:38:48.321Z,18.30
2019-04-03T12:39:48.375Z,18.50
2019-04-03T12:40:48.312Z,17.10
2019-04-03T12:41:48.298Z,18.50
2019-04-03T12:42:48.277Z,17.10
2019-04-03T12:43:49.960Z,16.20
2019-04-03T12:44:48.785Z,18.10
2019-04-03T12:45:48.257Z,22.30
2019-04-03T12:46:48.244Z,16.00
2019-04-03T12:47:48.239Z,17.60
2019-04-03T12:48:50.860Z,20.00
2019-04-03T12:49:48.229Z,19.20
2019-04-03T12:50:48.215Z,18.40
2019-04-03T12:51:48.183Z,18.30
2019-04-03T12:52:48.448Z,19.10